createdAt,value
2018-06-17T00:01:24.851Z,89.85
2018-06-17T00:03:54.083Z,90.40
2018-06-17T00:06:23.516Z,90.74
2018-06-17T00:08:52.746Z,91.41
2018-06-17T00:11:21.991Z,91.61
2018-06-17T00:13:51.195Z,91.46
2018-06-17T00:16:20.732Z,92.01
2018-06-17T00:18:49.966Z,90.88
2018-06-17T00:21:19.182Z,92.26
2018-06-17T00:23:48.421Z,92.21
2018-06-17T00:26:17.679Z,93.09
2018-06-17T00:28:46.907Z,93.16
2018-06-17T00:31:16.170Z,92.54
2018-06-17T00:33:45.426Z,92.74
2018-06-17T00:36:14.664Z,92.54
2018-06-17T00:38:43.918Z,93.47
2018-06-17T00:41:13.157Z,93.01
2018-06-17T00:43:42.382Z,93.08
2018-06-17T00:46:11.600Z,92.75
2018-06-17T00:48:40.867Z,90.55
2018-06-17T00:51:10.083Z,92.62
2018-06-17T00:53:39.411Z,92.68
2018-06-17T00:56:08.878Z,93.02
2018-06-17T00:58:38.097Z,93.06
2018-06-17T01:01:07.347Z,92.91
2018-06-17T01:03:36.575Z,93.43
2018-06-17T01:06:05.819Z,93.69
2018-06-17T01:08:35.071Z,93.69
2018-06-17T01:11:04.283Z,93.83
2018-06-17T01:13:33.523Z,93.60
2018-06-17T01:16:02.756Z,93.86
2018-06-17T01:18:32.026Z,93.98
2018-06-17T01:21:01.288Z,93.96
2018-06-17T01:23:30.518Z,93.84
2018-06-17T01:26:03.843Z,93.30
2018-06-17T01:28:33.073Z,92.90
2018-06-17T01:31:02.618Z,92.36
2018-06-17T01:33:32.042Z,92.33
2018-06-17T01:36:01.375Z,91.18
2018-06-17T01:38:30.907Z,90.86
2018-06-17T01:41:00.271Z,91.92
2018-06-17T01:43:30.047Z,92.02
2018-06-17T01:45:59.304Z,92.00
2018-06-17T01:48:28.521Z,92.70
2018-06-17T01:50:57.746Z,89.72
2018-06-17T01:53:26.994Z,90.95
2018-06-17T01:55:56.239Z,92.12
2018-06-17T01:58:25.462Z,92.33
2018-06-17T02:00:54.746Z,92.77
2018-06-17T02:03:29.278Z,92.74
2018-06-17T02:06:03.775Z,93.29
2018-06-17T02:08:38.298Z,93.99
2018-06-17T02:11:12.835Z,94.06
2018-06-17T02:13:42.059Z,93.69
2018-06-17T02:16:11.326Z,94.04
2018-06-17T02:18:40.605Z,94.36
2018-06-17T02:21:09.893Z,94.08
2018-06-17T02:23:38.961Z,94.03
2018-06-17T02:26:08.226Z,94.53
2018-06-17T02:28:37.458Z,94.66
2018-06-17T02:31:06.742Z,94.78
2018-06-17T02:33:36.010Z,95.36
2018-06-17T02:36:05.251Z,94.75
2018-06-17T02:38:34.495Z,94.67
2018-06-17T02:41:03.719Z,94.54
2018-06-17T02:43:32.945Z,94.89
2018-06-17T02:46:07.278Z,94.24
2018-06-17T02:48:41.725Z,94.57
2018-06-17T02:51:16.218Z,95.02
2018-06-17T02:53:51.885Z,94.84
2018-06-17T02:56:21.111Z,94.86
2018-06-17T02:58:50.357Z,93.87
2018-06-17T03:01:19.679Z,91.16
2018-06-17T03:03:48.933Z,92.36
2018-06-17T03:06:17.891Z,91.34
2018-06-17T03:08:47.124Z,91.14
2018-06-17T03:11:16.375Z,93.42
2018-06-17T03:13:52.341Z,94.02
2018-06-17T03:16:21.638Z,93.24
2018-06-17T03:18:50.872Z,92.94
2018-06-17T03:21:19.946Z,92.91
2018-06-17T03:23:49.171Z,93.11
2018-06-17T03:26:23.679Z,93.25
2018-06-17T03:28:58.083Z,90.26
2018-06-17T03:31:28.779Z,89.56
2018-06-17T03:33:58.022Z,90.51
2018-06-17T03:36:27.282Z,90.83
2018-06-17T03:38:57.127Z,91.01
2018-06-17T03:41:26.451Z,91.24
2018-06-17T03:43:55.695Z,90.66
2018-06-17T03:46:24.931Z,89.79
2018-06-17T03:48:54.159Z,89.96
2018-06-17T03:51:23.390Z,90.40
2018-06-17T03:53:52.599Z,88.97
2018-06-17T03:56:21.834Z,87.93
2018-06-17T03:58:51.079Z,88.38
2018-06-17T04:01:20.547Z,89.91
2018-06-17T04:03:49.765Z,90.20
2018-06-17T04:06:19.034Z,90.28
2018-06-17T04:08:48.255Z,88.12
2018-06-17T04:11:17.497Z,86.56
2018-06-17T04:13:46.718Z,86.72
2018-06-17T04:16:16.004Z,88.20
2018-06-17T04:18:45.274Z,87.84
2018-06-17T04:21:14.514Z,84.16
2018-06-17T04:23:43.807Z,84.17
2018-06-17T04:26:13.122Z,84.40
2018-06-17T04:28:42.352Z,84.61
2018-06-17T04:31:12.391Z,82.62
2018-06-17T04:33:41.630Z,80.96
2018-06-17T04:36:10.856Z,82.27
2018-06-17T04:38:40.130Z,80.15
2018-06-17T04:41:09.353Z,78.10
2018-06-17T04:43:38.606Z,78.98
2018-06-17T04:46:07.833Z,77.58
2018-06-17T04:51:37.058Z,77.80
2018-06-17T04:54:06.493Z,76.18
2018-06-17T04:56:35.704Z,77.75
2018-06-17T04:59:04.965Z,76.68
2018-06-17T05:01:34.246Z,77.86
2018-06-17T05:04:03.499Z,76.96
2018-06-17T05:06:32.723Z,77.37
2018-06-17T05:09:01.958Z,75.91
2018-06-17T05:11:31.192Z,76.61
2018-06-17T05:14:00.387Z,76.67
2018-06-17T05:16:29.586Z,76.22
2018-06-17T05:18:58.905Z,76.07
2018-06-17T05:21:28.137Z,75.50
2018-06-17T05:23:57.218Z,74.94
2018-06-17T05:26:27.504Z,75.29
2018-06-17T05:28:56.721Z,72.63
2018-06-17T05:31:25.970Z,73.25
2018-06-17T05:33:55.255Z,71.89
2018-06-17T05:36:24.478Z,72.40
2018-06-17T05:38:53.712Z,72.97
2018-06-17T05:41:22.981Z,74.90
2018-06-17T05:43:52.183Z,75.29
2018-06-17T05:46:21.393Z,75.45
2018-06-17T05:48:50.614Z,75.87
2018-06-17T05:51:19.848Z,75.59
2018-06-17T05:53:49.070Z,74.06
2018-06-17T05:56:18.311Z,71.91
2018-06-17T05:58:47.532Z,69.60
2018-06-17T06:01:16.755Z,67.25
2018-06-17T06:03:46.011Z,67.02
2018-06-17T06:06:15.284Z,66.04
2018-06-17T06:08:44.502Z,60.25
2018-06-17T06:11:13.477Z,57.25
2018-06-17T06:13:42.761Z,50.72
2018-06-17T06:16:12.000Z,45.87
2018-06-17T06:18:41.222Z,40.88
2018-06-17T06:21:10.199Z,38.78
2018-06-17T06:23:39.442Z,36.04
2018-06-17T06:26:08.773Z,39.12
2018-06-17T06:28:38.510Z,39.74
2018-06-17T06:31:07.770Z,37.58
2018-06-17T06:33:36.982Z,42.31
2018-06-17T06:36:06.288Z,45.89
2018-06-17T06:38:35.566Z,42.80
2018-06-17T06:41:04.806Z,37.65
2018-06-17T06:43:34.092Z,34.95
2018-06-17T06:46:03.335Z,33.31
2018-06-17T06:48:32.561Z,30.79
2018-06-17T06:51:01.877Z,31.99
2018-06-17T06:53:31.006Z,30.01
2018-06-17T06:56:00.224Z,30.97
2018-06-17T06:58:29.495Z,33.22
2018-06-17T07:00:58.738Z,32.22
2018-06-17T07:03:45.102Z,29.97
2018-06-17T07:06:31.521Z,29.24
2018-06-17T07:10:16.869Z,28.11
2018-06-17T07:12:46.174Z,30.83
2018-06-17T07:15:15.404Z,28.02
2018-06-17T07:17:55.671Z,26.75
2018-06-17T07:20:24.899Z,30.72
2018-06-17T07:22:54.137Z,31.62
2018-06-17T07:26:54.671Z,28.95
2018-06-17T07:29:43.223Z,28.21
2018-06-17T07:32:12.454Z,31.94
2018-06-17T07:34:41.687Z,32.65
2018-06-17T07:37:10.946Z,35.76
2018-06-17T07:40:51.194Z,37.15
2018-06-17T07:43:20.462Z,40.00
2018-06-17T07:45:49.693Z,39.83
2018-06-17T07:49:38.236Z,37.58
2018-06-17T07:52:25.758Z,28.64
2018-06-17T07:54:54.835Z,24.76
2018-06-17T07:57:25.490Z,28.17
2018-06-17T07:59:54.719Z,31.51
2018-06-17T08:02:23.989Z,27.96
2018-06-17T08:04:53.412Z,27.18
2018-06-17T08:07:22.689Z,34.23
2018-06-17T08:09:51.901Z,37.50
2018-06-17T08:12:21.146Z,40.11
2018-06-17T08:14:50.463Z,38.37
2018-06-17T08:17:19.775Z,36.10
2018-06-17T08:19:48.975Z,39.09
2018-06-17T08:22:18.278Z,40.08
2018-06-17T08:24:47.516Z,41.66
2018-06-17T08:27:16.503Z,41.40
2018-06-17T08:29:45.767Z,42.60
2018-06-17T08:32:15.076Z,44.54
2018-06-17T08:34:44.288Z,46.35
2018-06-17T08:37:13.537Z,46.44
2018-06-17T08:39:42.862Z,44.35
2018-06-17T08:42:12.066Z,45.67
2018-06-17T08:44:41.311Z,47.04
2018-06-17T08:47:10.539Z,49.91
2018-06-17T08:49:39.750Z,47.21
2018-06-17T08:52:08.961Z,47.01
2018-06-17T08:54:38.182Z,49.10
2018-06-17T08:57:07.440Z,46.22
2018-06-17T08:59:36.682Z,44.86
2018-06-17T09:02:05.932Z,45.78
2018-06-17T09:04:35.218Z,47.00
2018-06-17T09:07:04.471Z,45.92
2018-06-17T09:09:33.669Z,46.07
2018-06-17T09:12:02.930Z,38.74
2018-06-17T09:14:32.175Z,39.99
2018-06-17T09:17:01.388Z,40.76
2018-06-17T09:19:30.663Z,43.99
2018-06-17T09:21:59.890Z,43.50
2018-06-17T09:24:29.118Z,44.05
2018-06-17T09:26:58.343Z,43.72
2018-06-17T09:29:27.562Z,42.91
2018-06-17T09:31:56.868Z,40.30
2018-06-17T09:34:26.133Z,41.81
2018-06-17T09:36:55.363Z,41.98
2018-06-17T09:39:24.583Z,43.00
2018-06-17T09:41:53.814Z,41.62
2018-06-17T09:44:23.073Z,41.25
2018-06-17T09:46:52.353Z,42.59
2018-06-17T09:49:21.565Z,43.67
2018-06-17T09:51:50.790Z,42.28
2018-06-17T09:54:19.998Z,43.72
2018-06-17T09:56:49.206Z,42.64
2018-06-17T09:59:18.403Z,43.23
2018-06-17T10:01:48.518Z,40.53
2018-06-17T10:04:17.683Z,43.85
2018-06-17T10:06:46.930Z,44.19
2018-06-17T10:09:16.163Z,46.58
2018-06-17T10:11:45.376Z,48.36
2018-06-17T10:14:14.595Z,47.67
2018-06-17T10:16:43.819Z,47.71
2018-06-17T10:19:13.084Z,48.70
2018-06-17T10:21:42.330Z,49.00
2018-06-17T10:24:11.587Z,50.87
2018-06-17T10:26:40.807Z,50.68
2018-06-17T10:29:10.039Z,50.10
2018-06-17T10:31:39.333Z,52.26
2018-06-17T10:34:08.535Z,52.36
2018-06-17T10:36:37.759Z,52.56
2018-06-17T10:39:08.879Z,54.25
2018-06-17T10:42:08.824Z,55.65
2018-06-17T10:44:39.287Z,54.22
2018-06-17T10:47:08.527Z,55.68
2018-06-17T10:49:37.735Z,54.53
2018-06-17T10:52:06.950Z,53.74
2018-06-17T10:54:36.214Z,54.19
2018-06-17T10:57:05.530Z,52.64
2018-06-17T10:59:34.875Z,50.97
2018-06-17T11:02:04.158Z,51.38
2018-06-17T11:04:33.391Z,51.65
2018-06-17T11:07:02.623Z,52.79
2018-06-17T11:09:31.823Z,50.05
2018-06-17T11:12:01.050Z,52.76
2018-06-17T11:14:30.253Z,52.56
2018-06-17T11:16:59.475Z,51.55
2018-06-17T11:19:28.695Z,51.78
2018-06-17T11:21:57.907Z,52.22
2018-06-17T11:24:27.119Z,53.24
2018-06-17T11:26:56.354Z,50.85
2018-06-17T11:29:25.590Z,47.15
2018-06-17T11:34:52.367Z,50.37
2018-06-17T11:37:21.632Z,51.33
2018-06-17T11:39:50.943Z,52.52
2018-06-17T11:42:20.638Z,50.40
2018-06-17T11:44:49.934Z,49.43
2018-06-17T11:47:19.242Z,48.02
2018-06-17T11:49:48.447Z,38.77
2018-06-17T11:52:17.645Z,35.58
2018-06-17T11:54:46.891Z,34.71
2018-06-17T11:59:48.318Z,37.79
2018-06-17T12:02:17.477Z,42.07
2018-06-17T12:04:46.659Z,44.90
2018-06-17T12:07:15.870Z,47.31
2018-06-17T12:09:45.096Z,44.23
2018-06-17T12:12:14.258Z,50.88
2018-06-17T12:14:43.510Z,52.47
2018-06-17T12:17:12.527Z,52.42
2018-06-17T12:19:41.742Z,52.64
2018-06-17T12:22:11.019Z,54.08
2018-06-17T12:24:40.210Z,55.54
2018-06-17T12:27:09.444Z,57.24
2018-06-17T12:29:38.667Z,56.00
2018-06-17T12:32:07.921Z,55.26
2018-06-17T12:34:37.142Z,53.48
2018-06-17T12:37:06.334Z,56.79
2018-06-17T12:39:35.554Z,53.50
2018-06-17T12:42:04.764Z,55.66
2018-06-17T12:44:33.967Z,55.63
2018-06-17T12:47:03.181Z,52.10
2018-06-17T12:49:32.451Z,51.26
2018-06-17T12:52:01.678Z,49.50
2018-06-17T12:54:31.034Z,56.58
2018-06-17T12:57:00.222Z,53.15
2018-06-17T12:59:29.470Z,54.04
2018-06-17T13:01:58.747Z,53.76
2018-06-17T13:04:27.974Z,54.04
2018-06-17T13:06:57.183Z,54.29
2018-06-17T13:09:26.491Z,54.64
2018-06-17T13:11:55.686Z,54.92
2018-06-17T13:14:24.899Z,54.18
2018-06-17T13:16:54.091Z,50.90
2018-06-17T13:19:23.324Z,53.42
2018-06-17T13:21:52.522Z,57.39
2018-06-17T13:24:21.746Z,54.92
2018-06-17T13:26:50.946Z,56.43
2018-06-17T13:29:20.140Z,56.03
2018-06-17T13:31:49.326Z,55.13
2018-06-17T13:34:18.514Z,53.09
2018-06-17T13:36:47.710Z,48.57
2018-06-17T13:39:16.930Z,46.81
2018-06-17T13:41:46.146Z,46.37
2018-06-17T13:44:15.377Z,46.67
2018-06-17T13:46:44.576Z,47.43
2018-06-17T13:49:13.822Z,46.64
2018-06-17T13:51:43.015Z,48.44
2018-06-17T13:54:12.271Z,47.48
2018-06-17T13:56:41.498Z,47.67
2018-06-17T13:59:10.715Z,48.15
2018-06-17T14:01:39.906Z,47.13
2018-06-17T14:04:09.118Z,47.30
2018-06-17T14:06:38.418Z,47.11
2018-06-17T14:09:09.642Z,44.68
2018-06-17T14:11:38.936Z,46.71
2018-06-17T14:14:08.112Z,43.78
2018-06-17T14:16:37.329Z,46.01
2018-06-17T14:19:06.540Z,47.74
2018-06-17T14:21:35.741Z,51.28
2018-06-17T14:24:04.729Z,54.98
2018-06-17T14:26:33.913Z,55.79
2018-06-17T14:29:03.146Z,50.86
2018-06-17T14:31:32.344Z,51.06
2018-06-17T14:34:01.568Z,54.21
2018-06-17T14:36:30.776Z,54.83
2018-06-17T14:38:59.982Z,53.48
2018-06-17T14:41:29.200Z,55.75
2018-06-17T14:44:03.655Z,54.58
2018-06-17T14:46:39.342Z,55.55
2018-06-17T14:49:13.866Z,55.81
2018-06-17T14:51:48.396Z,56.63
2018-06-17T14:54:17.614Z,57.12
2018-06-17T14:56:46.797Z,57.02
2018-06-17T14:59:16.009Z,57.35
2018-06-17T15:01:45.197Z,58.01
2018-06-17T15:04:14.406Z,59.23
2018-06-17T15:06:43.603Z,60.34
2018-06-17T15:09:12.838Z,59.92
2018-06-17T15:11:42.046Z,59.56
2018-06-17T15:14:11.271Z,59.26
2018-06-17T15:16:40.519Z,58.54
2018-06-17T15:19:09.737Z,59.67
2018-06-17T15:21:39.108Z,60.14
2018-06-17T15:24:08.298Z,57.83
2018-06-17T15:26:37.625Z,59.21
2018-06-17T15:29:06.819Z,57.67
2018-06-17T15:31:41.161Z,59.55
2018-06-17T15:34:15.460Z,58.54
2018-06-17T15:36:49.849Z,58.44
2018-06-17T15:39:54.900Z,55.83
2018-06-17T15:42:24.071Z,55.91
2018-06-17T15:44:53.304Z,54.24
2018-06-17T15:47:22.496Z,58.04
2018-06-17T15:49:51.714Z,59.63
2018-06-17T15:52:20.903Z,61.21
2018-06-17T15:54:50.106Z,60.83
2018-06-17T15:57:19.308Z,61.96
2018-06-17T15:59:48.539Z,62.52
2018-06-17T16:02:17.773Z,62.45
2018-06-17T16:04:47.010Z,60.54
2018-06-17T16:07:16.207Z,61.58
2018-06-17T16:09:45.430Z,61.07
2018-06-17T16:12:20.136Z,57.18
2018-06-17T16:14:54.734Z,56.00
2018-06-17T16:17:29.111Z,56.98
2018-06-17T16:20:03.679Z,58.63
2018-06-17T16:22:32.970Z,60.04
2018-06-17T16:25:02.247Z,58.99
2018-06-17T16:27:31.450Z,58.49
2018-06-17T16:30:00.674Z,59.63
2018-06-17T16:32:29.867Z,58.46
2018-06-17T16:34:59.075Z,58.28
2018-06-17T16:37:28.295Z,58.92
2018-06-17T16:39:57.515Z,59.55
2018-06-17T16:42:26.723Z,58.65
2018-06-17T16:44:55.924Z,58.75
2018-06-17T16:47:25.129Z,57.64
2018-06-17T16:49:54.372Z,56.62
2018-06-17T16:52:28.846Z,57.08
2018-06-17T16:55:02.371Z,58.02
2018-06-17T16:57:36.956Z,57.30
2018-06-17T17:00:21.407Z,60.16
2018-06-17T17:02:50.663Z,62.96
2018-06-17T17:05:19.841Z,64.05
2018-06-17T17:07:49.058Z,64.66
2018-06-17T17:10:18.263Z,66.24
2018-06-17T17:12:47.455Z,67.87
2018-06-17T17:15:16.657Z,68.67
2018-06-17T17:17:45.912Z,70.38
2018-06-17T17:20:15.096Z,71.83
2018-06-17T17:22:44.323Z,74.24
2018-06-17T17:25:13.518Z,74.83
2018-06-17T17:27:42.702Z,77.54
2018-06-17T17:30:11.900Z,79.21
2018-06-17T17:32:46.219Z,80.90
2018-06-17T17:35:20.610Z,81.80
2018-06-17T17:37:55.119Z,82.57
2018-06-17T17:40:29.474Z,83.56
2018-06-17T17:42:58.706Z,82.91
2018-06-17T17:45:31.987Z,83.94
2018-06-17T17:48:01.200Z,85.73
2018-06-17T17:50:30.404Z,86.95
2018-06-17T17:52:59.608Z,87.35
2018-06-17T17:55:28.828Z,85.98
2018-06-17T17:57:58.030Z,86.50
2018-06-17T18:00:27.231Z,83.65
2018-06-17T18:02:56.504Z,81.74
2018-06-17T18:05:25.778Z,81.59
2018-06-17T18:07:54.992Z,81.78
2018-06-17T18:10:24.179Z,79.93
2018-06-17T18:12:53.398Z,82.66
2018-06-17T18:15:22.587Z,83.17
2018-06-17T18:17:51.833Z,84.30
2018-06-17T18:20:21.026Z,85.00
2018-06-17T18:22:50.307Z,83.30
2018-06-17T18:25:24.722Z,84.47
2018-06-17T18:27:59.131Z,84.65
2018-06-17T18:30:33.518Z,85.15
2018-06-17T18:33:08.028Z,85.78
2018-06-17T18:35:42.350Z,86.81
2018-06-17T18:38:11.340Z,87.52
2018-06-17T18:40:40.563Z,86.98
2018-06-17T18:43:09.834Z,85.38
2018-06-17T18:45:38.995Z,85.24
2018-06-17T18:48:08.304Z,87.30
2018-06-17T18:50:37.517Z,88.03
2018-06-17T18:53:06.915Z,88.64
2018-06-17T18:55:36.126Z,89.42
2018-06-17T18:58:05.335Z,89.60
2018-06-17T19:00:34.555Z,90.26
2018-06-17T19:03:03.759Z,90.27
2018-06-17T19:05:32.971Z,91.15
2018-06-17T19:08:02.242Z,92.13
2018-06-17T19:10:36.592Z,90.61
2018-06-17T19:13:10.938Z,90.49
2018-06-17T19:15:45.415Z,91.85
2018-06-17T19:18:14.864Z,91.26
2018-06-17T19:20:44.066Z,91.83
2018-06-17T19:23:13.390Z,91.92
2018-06-17T19:25:42.553Z,92.31
2018-06-17T19:28:11.768Z,92.47
2018-06-17T19:30:40.949Z,92.72
2018-06-17T19:33:10.162Z,94.24
2018-06-17T19:35:39.348Z,94.36
2018-06-17T19:38:08.555Z,94.35
2018-06-17T19:40:37.740Z,94.74
2018-06-17T19:43:06.934Z,95.02
2018-06-17T19:45:36.252Z,93.34
2018-06-17T19:48:05.380Z,93.43
2018-06-17T19:50:39.979Z,90.81
2018-06-17T19:53:14.488Z,93.31
2018-06-17T19:55:48.898Z,94.21
2018-06-17T19:58:23.289Z,94.56
2018-06-17T20:00:56.367Z,95.00
2018-06-17T20:03:25.623Z,95.47
2018-06-17T20:05:54.915Z,95.70
2018-06-17T20:08:24.284Z,94.78
2018-06-17T20:10:53.598Z,94.52
2018-06-17T20:13:22.787Z,94.13
2018-06-17T20:15:52.010Z,94.39
2018-06-17T20:18:21.214Z,94.17
2018-06-17T20:20:50.485Z,95.38
2018-06-17T20:23:19.691Z,96.10
2018-06-17T20:25:48.891Z,95.52
2018-06-17T20:28:18.108Z,96.46
2018-06-17T20:30:47.327Z,97.18
2018-06-17T20:33:21.755Z,96.29
2018-06-17T20:35:56.171Z,94.26
2018-06-17T20:38:30.744Z,93.96
2018-06-17T20:41:05.396Z,92.02
2018-06-17T20:43:39.781Z,93.84
2018-06-17T20:46:08.976Z,95.44
2018-06-17T20:48:38.180Z,94.69
2018-06-17T20:51:07.398Z,94.27
2018-06-17T20:53:36.639Z,94.58
2018-06-17T20:56:05.927Z,94.38
2018-06-17T20:58:35.145Z,96.22
2018-06-17T21:01:04.338Z,96.37
2018-06-17T21:03:33.564Z,96.71
2018-06-17T21:06:02.880Z,96.70
2018-06-17T21:08:32.342Z,96.53
2018-06-17T21:11:01.666Z,97.12
2018-06-17T21:13:30.862Z,97.59
2018-06-17T21:16:00.080Z,97.40
2018-06-17T21:18:34.662Z,96.47
2018-06-17T21:21:09.091Z,96.42
2018-06-17T21:23:43.563Z,97.40
2018-06-17T21:26:17.882Z,97.02
2018-06-17T21:28:47.084Z,97.57
2018-06-17T21:31:16.291Z,98.26
2018-06-17T21:33:45.505Z,97.53
2018-06-17T21:36:14.722Z,97.80
2018-06-17T21:38:43.915Z,97.40
2018-06-17T21:41:13.117Z,96.62
2018-06-17T21:43:42.322Z,97.36
2018-06-17T21:46:11.555Z,97.18
2018-06-17T21:48:40.774Z,94.62
2018-06-17T21:51:09.970Z,94.28
2018-06-17T21:53:39.206Z,94.31
2018-06-17T21:56:08.390Z,95.85
2018-06-17T21:58:42.953Z,97.10
2018-06-17T22:01:12.169Z,97.59
2018-06-17T22:03:41.366Z,98.25
2018-06-17T22:06:10.643Z,98.74
2018-06-17T22:08:45.135Z,98.74
2018-06-17T22:11:19.629Z,99.05
2018-06-17T22:13:54.010Z,98.75
2018-06-17T22:16:28.383Z,99.39
2018-06-17T22:18:57.350Z,98.37
2018-06-17T22:21:26.551Z,98.68
2018-06-17T22:23:55.808Z,98.80
2018-06-17T22:26:25.012Z,97.34
2018-06-17T22:28:54.661Z,97.66
2018-06-17T22:31:23.892Z,98.16
2018-06-17T22:33:53.121Z,97.36
2018-06-17T22:36:22.337Z,97.00
2018-06-17T22:38:51.561Z,97.29
2018-06-17T22:41:20.774Z,96.14
2018-06-17T22:43:50.037Z,95.16
2018-06-17T22:46:19.224Z,94.45
2018-06-17T22:48:48.417Z,94.68
2018-06-17T22:51:17.624Z,94.70
2018-06-17T22:54:03.558Z,94.50
2018-06-17T22:56:38.019Z,95.80
2018-06-17T22:59:12.337Z,96.41
2018-06-17T23:01:46.630Z,96.48
2018-06-17T23:04:20.960Z,95.29
2018-06-17T23:06:55.516Z,95.72
2018-06-17T23:09:29.933Z,94.93
2018-06-17T23:11:59.138Z,95.88
2018-06-17T23:14:28.346Z,96.19
2018-06-17T23:16:57.571Z,97.26
2018-06-17T23:19:26.751Z,97.60
2018-06-17T23:21:55.966Z,97.03
2018-06-17T23:24:25.291Z,95.77
2018-06-17T23:26:54.618Z,96.17
2018-06-17T23:29:23.833Z,96.70
2018-06-17T23:31:53.034Z,96.74
2018-06-17T23:34:22.262Z,96.77
2018-06-17T23:36:51.498Z,95.57
2018-06-17T23:39:20.698Z,95.41
2018-06-17T23:41:49.920Z,96.05
2018-06-17T23:44:19.120Z,96.73
2018-06-17T23:46:53.730Z,95.37
2018-06-17T23:49:28.164Z,94.81
2018-06-17T23:52:02.591Z,96.57
2018-06-17T23:54:37.009Z,98.11
2018-06-17T23:57:06.235Z,98.14
2018-06-17T23:59:35.426Z,98.32
